<?xml version="1.0" encoding="UTF-8"?>
<gpx xmlns="http://www.topografix.com/GPX/1/1" xmlns:xsi="http://www.w3.org/2001/XMLSchema-instance" version="1.1" xsi:schemaLocation="http://www.topografix.com/GPX/1/1 http://www.topografix.com/GPX/1/1/gpx.xsd">
  <metadata>
    <name>Triathlon de Muret 2026</name>
  </metadata>
  <trk>
    <name>Triathlon de Muret 2026</name>
    <trkseg>
      <trkpt lat="43.455378" lon="1.277184">
        <ele>185.85694</ele>
        <time>2026-05-23T19:15:00.000Z</time>
      </trkpt>
      <trkpt lat="43.455216" lon="1.277172">
        <ele>185.856942</ele>
        <time>2026-05-23T19:15:02.000Z</time>
      </trkpt>
      <trkpt lat="43.455088" lon="1.277065">
        <ele>185.856943</ele>
        <time>2026-05-23T19:15:04.000Z</time>
      </trkpt>
      <trkpt lat="43.454755" lon="1.276735">
        <ele>185.856947</ele>
        <time>2026-05-23T19:15:09.000Z</time>
      </trkpt>
      <trkpt lat="43.454618" lon="1.276375">
        <ele>185.84009</ele>
        <time>2026-05-23T19:15:12.000Z</time>
      </trkpt>
      <trkpt lat="43.45433" lon="1.27628">
        <ele>185.799696</ele>
        <time>2026-05-23T19:15:15.000Z</time>
      </trkpt>
      <trkpt lat="43.454202" lon="1.276253">
        <ele>185.780575</ele>
        <time>2026-05-23T19:15:16.000Z</time>
      </trkpt>
      <trkpt lat="43.454073" lon="1.276287">
        <ele>185.761983</ele>
        <time>2026-05-23T19:15:17.000Z</time>
      </trkpt>
      <trkpt lat="43.453734" lon="1.27658">
        <ele>185.706026</ele>
        <time>2026-05-23T19:15:21.000Z</time>
      </trkpt>
      <trkpt lat="43.453585" lon="1.27663">
        <ele>185.685906</ele>
        <time>2026-05-23T19:15:23.000Z</time>
      </trkpt>
      <trkpt lat="43.453453" lon="1.276611">
        <ele>185.666447</ele>
        <time>2026-05-23T19:15:24.000Z</time>
      </trkpt>
      <trkpt lat="43.453182" lon="1.276448">
        <ele>185.627029</ele>
        <time>2026-05-23T19:15:27.000Z</time>
      </trkpt>
      <trkpt lat="43.452708" lon="1.275779">
        <ele>185.729789</ele>
        <time>2026-05-23T19:15:35.000Z</time>
      </trkpt>
      <trkpt lat="43.452531" lon="1.275592">
        <ele>185.777827</ele>
        <time>2026-05-23T19:15:37.000Z</time>
      </trkpt>
      <trkpt lat="43.452377" lon="1.275539">
        <ele>185.814701</ele>
        <time>2026-05-23T19:15:39.000Z</time>
      </trkpt>
      <trkpt lat="43.452193" lon="1.275511">
        <ele>185.855287</ele>
        <time>2026-05-23T19:15:41.000Z</time>
      </trkpt>
      <trkpt lat="43.451783" lon="1.275587">
        <ele>185.947263</ele>
        <time>2026-05-23T19:15:46.000Z</time>
      </trkpt>
      <trkpt lat="43.451441" lon="1.275771">
        <ele>186.022412</ele>
        <time>2026-05-23T19:15:50.000Z</time>
      </trkpt>
      <trkpt lat="43.451392" lon="1.275834">
        <ele>186.033924</ele>
        <time>2026-05-23T19:15:51.000Z</time>
      </trkpt>
      <trkpt lat="43.451265" lon="1.275962">
        <ele>186.058528</ele>
        <time>2026-05-23T19:15:53.000Z</time>
      </trkpt>
      <trkpt lat="43.451178" lon="1.276116">
        <ele>186.081617</ele>
        <time>2026-05-23T19:15:55.000Z</time>
      </trkpt>
      <trkpt lat="43.451132" lon="1.276245">
        <ele>186.099016</ele>
        <time>2026-05-23T19:15:56.000Z</time>
      </trkpt>
      <trkpt lat="43.451172" lon="1.277097">
        <ele>186.197254</ele>
        <time>2026-05-23T19:16:03.000Z</time>
      </trkpt>
      <trkpt lat="43.451167" lon="1.277164">
        <ele>186.207019</ele>
        <time>2026-05-23T19:16:04.000Z</time>
      </trkpt>
      <trkpt lat="43.451043" lon="1.277303">
        <ele>186.231526</ele>
        <time>2026-05-23T19:16:06.000Z</time>
      </trkpt>
      <trkpt lat="43.450912" lon="1.277339">
        <ele>186.252537</ele>
        <time>2026-05-23T19:16:07.000Z</time>
      </trkpt>
      <trkpt lat="43.450632" lon="1.277306">
        <ele>186.297692</ele>
        <time>2026-05-23T19:16:10.000Z</time>
      </trkpt>
      <trkpt lat="43.450404" lon="1.277218">
        <ele>186.335082</ele>
        <time>2026-05-23T19:16:13.000Z</time>
      </trkpt>
      <trkpt lat="43.45035" lon="1.277173">
        <ele>186.345834</ele>
        <time>2026-05-23T19:16:14.000Z</time>
      </trkpt>
      <trkpt lat="43.450279" lon="1.277048">
        <ele>186.363728</ele>
        <time>2026-05-23T19:16:15.000Z</time>
      </trkpt>
      <trkpt lat="43.450261" lon="1.276764">
        <ele>186.397804</ele>
        <time>2026-05-23T19:16:17.000Z</time>
      </trkpt>
      <trkpt lat="43.450332" lon="1.276383">
        <ele>186.444107</ele>
        <time>2026-05-23T19:16:20.000Z</time>
      </trkpt>
      <trkpt lat="43.450327" lon="1.276285">
        <ele>186.457283</ele>
        <time>2026-05-23T19:16:21.000Z</time>
      </trkpt>
      <trkpt lat="43.45091" lon="1.272882">
        <ele>186.912393</ele>
        <time>2026-05-23T19:16:49.000Z</time>
      </trkpt>
      <trkpt lat="43.45111" lon="1.271636">
        <ele>186.765937</ele>
        <time>2026-05-23T19:16:59.000Z</time>
      </trkpt>
      <trkpt lat="43.451174" lon="1.271093">
        <ele>186.692044</ele>
        <time>2026-05-23T19:17:03.000Z</time>
      </trkpt>
      <trkpt lat="43.451194" lon="1.270942">
        <ele>186.670005</ele>
        <time>2026-05-23T19:17:04.000Z</time>
      </trkpt>
      <trkpt lat="43.451403" lon="1.270603">
        <ele>186.608492</ele>
        <time>2026-05-23T19:17:08.000Z</time>
      </trkpt>
      <trkpt lat="43.45213" lon="1.26949">
        <ele>186.559251</ele>
        <time>2026-05-23T19:17:20.000Z</time>
      </trkpt>
      <trkpt lat="43.451397" lon="1.270599">
        <ele>186.597658</ele>
        <time>2026-05-23T19:17:32.000Z</time>
      </trkpt>
      <trkpt lat="43.451185" lon="1.270939">
        <ele>186.668692</ele>
        <time>2026-05-23T19:17:36.000Z</time>
      </trkpt>
      <trkpt lat="43.451171" lon="1.271097">
        <ele>186.694148</ele>
        <time>2026-05-23T19:17:37.000Z</time>
      </trkpt>
      <trkpt lat="43.451104" lon="1.271631">
        <ele>186.779486</ele>
        <time>2026-05-23T19:17:41.000Z</time>
      </trkpt>
      <trkpt lat="43.450911" lon="1.272874">
        <ele>186.891187</ele>
        <time>2026-05-23T19:17:51.000Z</time>
      </trkpt>
      <trkpt lat="43.450314" lon="1.276271">
        <ele>186.416839</ele>
        <time>2026-05-23T19:18:19.000Z</time>
      </trkpt>
      <trkpt lat="43.450284" lon="1.276379">
        <ele>186.398879</ele>
        <time>2026-05-23T19:18:20.000Z</time>
      </trkpt>
      <trkpt lat="43.450209" lon="1.276872">
        <ele>186.319503</ele>
        <time>2026-05-23T19:18:24.000Z</time>
      </trkpt>
      <trkpt lat="43.45018" lon="1.276942">
        <ele>186.305553</ele>
        <time>2026-05-23T19:18:25.000Z</time>
      </trkpt>
      <trkpt lat="43.450121" lon="1.277006">
        <ele>186.290217</ele>
        <time>2026-05-23T19:18:26.000Z</time>
      </trkpt>
      <trkpt lat="43.450091" lon="1.277013">
        <ele>186.282479</ele>
        <time>2026-05-23T19:18:26.000Z</time>
      </trkpt>
      <trkpt lat="43.450004" lon="1.277093">
        <ele>186.260095</ele>
        <time>2026-05-23T19:18:27.000Z</time>
      </trkpt>
      <trkpt lat="43.449956" lon="1.277219">
        <ele>186.23779</ele>
        <time>2026-05-23T19:18:28.000Z</time>
      </trkpt>
      <trkpt lat="43.449947" lon="1.277355">
        <ele>186.223123</ele>
        <time>2026-05-23T19:18:29.000Z</time>
      </trkpt>
      <trkpt lat="43.44999" lon="1.277484">
        <ele>186.208705</ele>
        <time>2026-05-23T19:18:30.000Z</time>
      </trkpt>
      <trkpt lat="43.450073" lon="1.277573">
        <ele>186.194283</ele>
        <time>2026-05-23T19:18:31.000Z</time>
      </trkpt>
      <trkpt lat="43.450165" lon="1.277592">
        <ele>186.179874</ele>
        <time>2026-05-23T19:18:32.000Z</time>
      </trkpt>
      <trkpt lat="43.450247" lon="1.277788">
        <ele>186.157205</ele>
        <time>2026-05-23T19:18:34.000Z</time>
      </trkpt>
      <trkpt lat="43.450379" lon="1.278239">
        <ele>186.106069</ele>
        <time>2026-05-23T19:18:38.000Z</time>
      </trkpt>
      <trkpt lat="43.450508" lon="1.278959">
        <ele>186.027778</ele>
        <time>2026-05-23T19:18:44.000Z</time>
      </trkpt>
      <trkpt lat="43.450645" lon="1.279519">
        <ele>185.955491</ele>
        <time>2026-05-23T19:18:49.000Z</time>
      </trkpt>
      <trkpt lat="43.450887" lon="1.280142">
        <ele>185.819238</ele>
        <time>2026-05-23T19:18:55.000Z</time>
      </trkpt>
      <trkpt lat="43.451115" lon="1.280541">
        <ele>185.720576</ele>
        <time>2026-05-23T19:18:59.000Z</time>
      </trkpt>
      <trkpt lat="43.451381" lon="1.280918">
        <ele>185.61813</ele>
        <time>2026-05-23T19:19:03.000Z</time>
      </trkpt>
      <trkpt lat="43.451654" lon="1.281265">
        <ele>185.517545</ele>
        <time>2026-05-23T19:19:07.000Z</time>
      </trkpt>
      <trkpt lat="43.453132" lon="1.28273">
        <ele>184.854511</ele>
        <time>2026-05-23T19:19:27.000Z</time>
      </trkpt>
      <trkpt lat="43.453435" lon="1.283044">
        <ele>184.643537</ele>
        <time>2026-05-23T19:19:31.000Z</time>
      </trkpt>
      <trkpt lat="43.453743" lon="1.28347">
        <ele>184.381412</ele>
        <time>2026-05-23T19:19:36.000Z</time>
      </trkpt>
      <trkpt lat="43.454052" lon="1.283927">
        <ele>184.102829</ele>
        <time>2026-05-23T19:19:41.000Z</time>
      </trkpt>
      <trkpt lat="43.454449" lon="1.284719">
        <ele>183.72019</ele>
        <time>2026-05-23T19:19:49.000Z</time>
      </trkpt>
      <trkpt lat="43.454767" lon="1.28543">
        <ele>183.56025</ele>
        <time>2026-05-23T19:19:56.000Z</time>
      </trkpt>
      <trkpt lat="43.454915" lon="1.285869">
        <ele>183.466894</ele>
        <time>2026-05-23T19:20:00.000Z</time>
      </trkpt>
      <trkpt lat="43.455121" lon="1.286619">
        <ele>183.311781</ele>
        <time>2026-05-23T19:20:06.000Z</time>
      </trkpt>
      <trkpt lat="43.455444" lon="1.287954">
        <ele>183.141398</ele>
        <time>2026-05-23T19:20:17.000Z</time>
      </trkpt>
      <trkpt lat="43.455589" lon="1.288379">
        <ele>183.08854</ele>
        <time>2026-05-23T19:20:21.000Z</time>
      </trkpt>
      <trkpt lat="43.455686" lon="1.288595">
        <ele>183.060132</ele>
        <time>2026-05-23T19:20:23.000Z</time>
      </trkpt>
      <trkpt lat="43.455934" lon="1.289001">
        <ele>183.002937</ele>
        <time>2026-05-23T19:20:27.000Z</time>
      </trkpt>
      <trkpt lat="43.456631" lon="1.290024">
        <ele>182.889296</ele>
        <time>2026-05-23T19:20:38.000Z</time>
      </trkpt>
      <trkpt lat="43.457987" lon="1.29255">
        <ele>182.816618</ele>
        <time>2026-05-23T19:21:03.000Z</time>
      </trkpt>
      <trkpt lat="43.458099" lon="1.29269">
        <ele>182.818189</ele>
        <time>2026-05-23T19:21:05.000Z</time>
      </trkpt>
      <trkpt lat="43.458399" lon="1.292793">
        <ele>182.818599</ele>
        <time>2026-05-23T19:21:08.000Z</time>
      </trkpt>
      <trkpt lat="43.458444" lon="1.292981">
        <ele>182.816986</ele>
        <time>2026-05-23T19:21:10.000Z</time>
      </trkpt>
      <trkpt lat="43.45844" lon="1.292983">
        <ele>182.816938</ele>
        <time>2026-05-23T19:21:10.000Z</time>
      </trkpt>
      <trkpt lat="43.458445" lon="1.292989">
        <ele>182.816928</ele>
        <time>2026-05-23T19:21:10.000Z</time>
      </trkpt>
      <trkpt lat="43.458451" lon="1.292981">
        <ele>182.816937</ele>
        <time>2026-05-23T19:21:10.000Z</time>
      </trkpt>
      <trkpt lat="43.458449" lon="1.292983">
        <ele>182.816934</ele>
        <time>2026-05-23T19:21:10.000Z</time>
      </trkpt>
      <trkpt lat="43.458536" lon="1.292916">
        <ele>182.815815</ele>
        <time>2026-05-23T19:21:11.000Z</time>
      </trkpt>
      <trkpt lat="43.458519" lon="1.292912">
        <ele>182.815791</ele>
        <time>2026-05-23T19:21:11.000Z</time>
      </trkpt>
      <trkpt lat="43.458454" lon="1.292793">
        <ele>182.814613</ele>
        <time>2026-05-23T19:21:12.000Z</time>
      </trkpt>
      <trkpt lat="43.458394" lon="1.292801">
        <ele>182.813982</ele>
        <time>2026-05-23T19:21:13.000Z</time>
      </trkpt>
      <trkpt lat="43.4581" lon="1.29268">
        <ele>182.810396</ele>
        <time>2026-05-23T19:21:16.000Z</time>
      </trkpt>
      <trkpt lat="43.457981" lon="1.292554">
        <ele>182.808777</ele>
        <time>2026-05-23T19:21:18.000Z</time>
      </trkpt>
      <trkpt lat="43.456625" lon="1.290033">
        <ele>182.866165</ele>
        <time>2026-05-23T19:21:43.000Z</time>
      </trkpt>
      <trkpt lat="43.455932" lon="1.289011">
        <ele>183.006098</ele>
        <time>2026-05-23T19:21:54.000Z</time>
      </trkpt>
      <trkpt lat="43.455687" lon="1.288607">
        <ele>183.072848</ele>
        <time>2026-05-23T19:21:58.000Z</time>
      </trkpt>
      <trkpt lat="43.455583" lon="1.288378">
        <ele>183.106016</ele>
        <time>2026-05-23T19:22:00.000Z</time>
      </trkpt>
      <trkpt lat="43.455441" lon="1.287946">
        <ele>183.167737</ele>
        <time>2026-05-23T19:22:04.000Z</time>
      </trkpt>
      <trkpt lat="43.455126" lon="1.286622">
        <ele>183.315135</ele>
        <time>2026-05-23T19:22:15.000Z</time>
      </trkpt>
      <trkpt lat="43.454913" lon="1.285871">
        <ele>183.396892</ele>
        <time>2026-05-23T19:22:22.000Z</time>
      </trkpt>
      <trkpt lat="43.454763" lon="1.285439">
        <ele>183.446107</ele>
        <time>2026-05-23T19:22:26.000Z</time>
      </trkpt>
      <trkpt lat="43.454461" lon="1.284708">
        <ele>183.777426</ele>
        <time>2026-05-23T19:22:33.000Z</time>
      </trkpt>
      <trkpt lat="43.454062" lon="1.283928">
        <ele>184.165421</ele>
        <time>2026-05-23T19:22:41.000Z</time>
      </trkpt>
      <trkpt lat="43.453756" lon="1.283463">
        <ele>184.424311</ele>
        <time>2026-05-23T19:22:46.000Z</time>
      </trkpt>
      <trkpt lat="43.453435" lon="1.283051">
        <ele>184.622048</ele>
        <time>2026-05-23T19:22:51.000Z</time>
      </trkpt>
      <trkpt lat="43.453138" lon="1.282719">
        <ele>184.786863</ele>
        <time>2026-05-23T19:22:55.000Z</time>
      </trkpt>
      <trkpt lat="43.451659" lon="1.281256">
        <ele>185.506238</ele>
        <time>2026-05-23T19:23:15.000Z</time>
      </trkpt>
      <trkpt lat="43.451377" lon="1.280931">
        <ele>185.632678</ele>
        <time>2026-05-23T19:23:19.000Z</time>
      </trkpt>
      <trkpt lat="43.451106" lon="1.280548">
        <ele>185.761488</ele>
        <time>2026-05-23T19:23:23.000Z</time>
      </trkpt>
      <trkpt lat="43.450894" lon="1.28013">
        <ele>185.862893</ele>
        <time>2026-05-23T19:23:27.000Z</time>
      </trkpt>
      <trkpt lat="43.450642" lon="1.27952">
        <ele>185.924217</ele>
        <time>2026-05-23T19:23:33.000Z</time>
      </trkpt>
      <trkpt lat="43.450497" lon="1.278955">
        <ele>185.976438</ele>
        <time>2026-05-23T19:23:38.000Z</time>
      </trkpt>
      <trkpt lat="43.450378" lon="1.278229">
        <ele>186.041593</ele>
        <time>2026-05-23T19:23:44.000Z</time>
      </trkpt>
      <trkpt lat="43.450315" lon="1.277516">
        <ele>186.133273</ele>
        <time>2026-05-23T19:23:50.000Z</time>
      </trkpt>
      <trkpt lat="43.450337" lon="1.277473">
        <ele>186.144379</ele>
        <time>2026-05-23T19:23:50.000Z</time>
      </trkpt>
      <trkpt lat="43.450351" lon="1.277432">
        <ele>186.150385</ele>
        <time>2026-05-23T19:23:50.000Z</time>
      </trkpt>
      <trkpt lat="43.450387" lon="1.277307">
        <ele>186.171358</ele>
        <time>2026-05-23T19:23:51.000Z</time>
      </trkpt>
      <trkpt lat="43.45036" lon="1.277162">
        <ele>186.192172</ele>
        <time>2026-05-23T19:23:52.000Z</time>
      </trkpt>
      <trkpt lat="43.450282" lon="1.27705">
        <ele>186.215295</ele>
        <time>2026-05-23T19:23:53.000Z</time>
      </trkpt>
      <trkpt lat="43.450261" lon="1.276766">
        <ele>186.259265</ele>
        <time>2026-05-23T19:23:55.000Z</time>
      </trkpt>
      <trkpt lat="43.450324" lon="1.276389">
        <ele>186.319029</ele>
        <time>2026-05-23T19:23:58.000Z</time>
      </trkpt>
      <trkpt lat="43.450329" lon="1.276276">
        <ele>186.33606</ele>
        <time>2026-05-23T19:23:59.000Z</time>
      </trkpt>
      <trkpt lat="43.450911" lon="1.272874">
        <ele>186.865713</ele>
        <time>2026-05-23T19:24:27.000Z</time>
      </trkpt>
      <trkpt lat="43.45111" lon="1.271627">
        <ele>186.753825</ele>
        <time>2026-05-23T19:24:37.000Z</time>
      </trkpt>
      <trkpt lat="43.451175" lon="1.271092">
        <ele>186.706805</ele>
        <time>2026-05-23T19:24:41.000Z</time>
      </trkpt>
      <trkpt lat="43.451195" lon="1.270946">
        <ele>186.692769</ele>
        <time>2026-05-23T19:24:42.000Z</time>
      </trkpt>
      <trkpt lat="43.451397" lon="1.270595">
        <ele>186.654543</ele>
        <time>2026-05-23T19:24:46.000Z</time>
      </trkpt>
      <trkpt lat="43.452144" lon="1.269475">
        <ele>186.52792</ele>
        <time>2026-05-23T19:24:58.000Z</time>
      </trkpt>
      <trkpt lat="43.451402" lon="1.270606">
        <ele>186.608937</ele>
        <time>2026-05-23T19:25:10.000Z</time>
      </trkpt>
      <trkpt lat="43.45118" lon="1.270934">
        <ele>186.690282</ele>
        <time>2026-05-23T19:25:14.000Z</time>
      </trkpt>
      <trkpt lat="43.451167" lon="1.271092">
        <ele>186.719419</ele>
        <time>2026-05-23T19:25:15.000Z</time>
      </trkpt>
      <trkpt lat="43.451106" lon="1.271633">
        <ele>186.817153</ele>
        <time>2026-05-23T19:25:19.000Z</time>
      </trkpt>
      <trkpt lat="43.450925" lon="1.272886">
        <ele>186.853778</ele>
        <time>2026-05-23T19:25:29.000Z</time>
      </trkpt>
      <trkpt lat="43.450321" lon="1.276275">
        <ele>186.413602</ele>
        <time>2026-05-23T19:25:57.000Z</time>
      </trkpt>
      <trkpt lat="43.450279" lon="1.276377">
        <ele>186.395102</ele>
        <time>2026-05-23T19:25:58.000Z</time>
      </trkpt>
      <trkpt lat="43.450198" lon="1.276862">
        <ele>186.313369</ele>
        <time>2026-05-23T19:26:02.000Z</time>
      </trkpt>
      <trkpt lat="43.45018" lon="1.276945">
        <ele>186.299011</ele>
        <time>2026-05-23T19:26:03.000Z</time>
      </trkpt>
      <trkpt lat="43.450126" lon="1.277006">
        <ele>186.286465</ele>
        <time>2026-05-23T19:26:04.000Z</time>
      </trkpt>
      <trkpt lat="43.450092" lon="1.277016">
        <ele>186.28102</ele>
        <time>2026-05-23T19:26:04.000Z</time>
      </trkpt>
      <trkpt lat="43.450002" lon="1.277101">
        <ele>186.265237</ele>
        <time>2026-05-23T19:26:05.000Z</time>
      </trkpt>
      <trkpt lat="43.449948" lon="1.277212">
        <ele>186.249512</ele>
        <time>2026-05-23T19:26:06.000Z</time>
      </trkpt>
      <trkpt lat="43.449956" lon="1.277347">
        <ele>186.234261</ele>
        <time>2026-05-23T19:26:07.000Z</time>
      </trkpt>
      <trkpt lat="43.449998" lon="1.277472">
        <ele>186.2189</ele>
        <time>2026-05-23T19:26:08.000Z</time>
      </trkpt>
      <trkpt lat="43.450075" lon="1.27757">
        <ele>186.203514</ele>
        <time>2026-05-23T19:26:09.000Z</time>
      </trkpt>
      <trkpt lat="43.45017" lon="1.277605">
        <ele>186.18816</ele>
        <time>2026-05-23T19:26:10.000Z</time>
      </trkpt>
      <trkpt lat="43.450247" lon="1.277775">
        <ele>186.164002</ele>
        <time>2026-05-23T19:26:12.000Z</time>
      </trkpt>
      <trkpt lat="43.450366" lon="1.27824">
        <ele>186.109466</ele>
        <time>2026-05-23T19:26:16.000Z</time>
      </trkpt>
      <trkpt lat="43.450505" lon="1.278963">
        <ele>186.026032</ele>
        <time>2026-05-23T19:26:22.000Z</time>
      </trkpt>
      <trkpt lat="43.45064" lon="1.279521">
        <ele>185.930168</ele>
        <time>2026-05-23T19:26:27.000Z</time>
      </trkpt>
      <trkpt lat="43.450895" lon="1.280132">
        <ele>185.811474</ele>
        <time>2026-05-23T19:26:33.000Z</time>
      </trkpt>
      <trkpt lat="43.451114" lon="1.280541">
        <ele>185.725543</ele>
        <time>2026-05-23T19:26:37.000Z</time>
      </trkpt>
      <trkpt lat="43.451375" lon="1.280929">
        <ele>185.636289</ele>
        <time>2026-05-23T19:26:41.000Z</time>
      </trkpt>
      <trkpt lat="43.45166" lon="1.281268">
        <ele>185.523043</ele>
        <time>2026-05-23T19:26:45.000Z</time>
      </trkpt>
      <trkpt lat="43.453135" lon="1.282717">
        <ele>184.82193</ele>
        <time>2026-05-23T19:27:05.000Z</time>
      </trkpt>
      <trkpt lat="43.453436" lon="1.283045">
        <ele>184.607581</ele>
        <time>2026-05-23T19:27:09.000Z</time>
      </trkpt>
      <trkpt lat="43.453748" lon="1.283468">
        <ele>184.359028</ele>
        <time>2026-05-23T19:27:14.000Z</time>
      </trkpt>
      <trkpt lat="43.454062" lon="1.283932">
        <ele>184.094901</ele>
        <time>2026-05-23T19:27:19.000Z</time>
      </trkpt>
      <trkpt lat="43.454449" lon="1.284712">
        <ele>183.787232</ele>
        <time>2026-05-23T19:27:27.000Z</time>
      </trkpt>
      <trkpt lat="43.454757" lon="1.285442">
        <ele>183.577829</ele>
        <time>2026-05-23T19:27:34.000Z</time>
      </trkpt>
      <trkpt lat="43.454919" lon="1.285878">
        <ele>183.455584</ele>
        <time>2026-05-23T19:27:38.000Z</time>
      </trkpt>
      <trkpt lat="43.455133" lon="1.28662">
        <ele>183.281626</ele>
        <time>2026-05-23T19:27:44.000Z</time>
      </trkpt>
      <trkpt lat="43.45543" lon="1.28796">
        <ele>183.145183</ele>
        <time>2026-05-23T19:27:55.000Z</time>
      </trkpt>
      <trkpt lat="43.455583" lon="1.288378">
        <ele>183.098109</ele>
        <time>2026-05-23T19:27:59.000Z</time>
      </trkpt>
      <trkpt lat="43.455696" lon="1.288591">
        <ele>183.072816</ele>
        <time>2026-05-23T19:28:01.000Z</time>
      </trkpt>
      <trkpt lat="43.455939" lon="1.289012">
        <ele>183.020855</ele>
        <time>2026-05-23T19:28:05.000Z</time>
      </trkpt>
      <trkpt lat="43.456628" lon="1.290018">
        <ele>182.879404</ele>
        <time>2026-05-23T19:28:16.000Z</time>
      </trkpt>
      <trkpt lat="43.457992" lon="1.292545">
        <ele>182.819977</ele>
        <time>2026-05-23T19:28:41.000Z</time>
      </trkpt>
      <trkpt lat="43.458082" lon="1.292685">
        <ele>182.818978</ele>
        <time>2026-05-23T19:28:43.000Z</time>
      </trkpt>
      <trkpt lat="43.458401" lon="1.292798">
        <ele>182.815401</ele>
        <time>2026-05-23T19:28:47.000Z</time>
      </trkpt>
      <trkpt lat="43.458443" lon="1.292988">
        <ele>182.813769</ele>
        <time>2026-05-23T19:28:49.000Z</time>
      </trkpt>
      <trkpt lat="43.458446" lon="1.292997">
        <ele>182.813743</ele>
        <time>2026-05-23T19:28:49.000Z</time>
      </trkpt>
      <trkpt lat="43.458449" lon="1.292996">
        <ele>182.813726</ele>
        <time>2026-05-23T19:28:49.000Z</time>
      </trkpt>
      <trkpt lat="43.458452" lon="1.29299">
        <ele>182.813728</ele>
        <time>2026-05-23T19:28:49.000Z</time>
      </trkpt>
      <trkpt lat="43.458441" lon="1.292989">
        <ele>182.813723</ele>
        <time>2026-05-23T19:28:49.000Z</time>
      </trkpt>
      <trkpt lat="43.458456" lon="1.292985">
        <ele>182.813715</ele>
        <time>2026-05-23T19:28:49.000Z</time>
      </trkpt>
      <trkpt lat="43.458531" lon="1.292904">
        <ele>182.812583</ele>
        <time>2026-05-23T19:28:50.000Z</time>
      </trkpt>
      <trkpt lat="43.458523" lon="1.2929">
        <ele>182.812571</ele>
        <time>2026-05-23T19:28:50.000Z</time>
      </trkpt>
      <trkpt lat="43.45845" lon="1.292792">
        <ele>182.811374</ele>
        <time>2026-05-23T19:28:51.000Z</time>
      </trkpt>
      <trkpt lat="43.458406" lon="1.292794">
        <ele>182.810745</ele>
        <time>2026-05-23T19:28:51.000Z</time>
      </trkpt>
      <trkpt lat="43.458098" lon="1.292677">
        <ele>182.807159</ele>
        <time>2026-05-23T19:28:55.000Z</time>
      </trkpt>
      <trkpt lat="43.457976" lon="1.292543">
        <ele>182.805534</ele>
        <time>2026-05-23T19:28:57.000Z</time>
      </trkpt>
      <trkpt lat="43.456624" lon="1.290029">
        <ele>182.845084</ele>
        <time>2026-05-23T19:29:22.000Z</time>
      </trkpt>
      <trkpt lat="43.45594" lon="1.289011">
        <ele>183.017182</ele>
        <time>2026-05-23T19:29:33.000Z</time>
      </trkpt>
      <trkpt lat="43.455693" lon="1.288606">
        <ele>183.081659</ele>
        <time>2026-05-23T19:29:37.000Z</time>
      </trkpt>
      <trkpt lat="43.455584" lon="1.288384">
        <ele>183.113685</ele>
        <time>2026-05-23T19:29:39.000Z</time>
      </trkpt>
      <trkpt lat="43.455431" lon="1.28796">
        <ele>183.167826</ele>
        <time>2026-05-23T19:29:43.000Z</time>
      </trkpt>
      <trkpt lat="43.455122" lon="1.286617">
        <ele>183.295286</ele>
        <time>2026-05-23T19:29:54.000Z</time>
      </trkpt>
      <trkpt lat="43.45492" lon="1.285878">
        <ele>183.369133</ele>
        <time>2026-05-23T19:30:00.000Z</time>
      </trkpt>
      <trkpt lat="43.454769" lon="1.285439">
        <ele>183.514138</ele>
        <time>2026-05-23T19:30:04.000Z</time>
      </trkpt>
      <trkpt lat="43.454453" lon="1.284715">
        <ele>183.8121</ele>
        <time>2026-05-23T19:30:11.000Z</time>
      </trkpt>
      <trkpt lat="43.454056" lon="1.283943">
        <ele>184.153816</ele>
        <time>2026-05-23T19:30:19.000Z</time>
      </trkpt>
      <trkpt lat="43.45374" lon="1.283469">
        <ele>184.381125</ele>
        <time>2026-05-23T19:30:24.000Z</time>
      </trkpt>
      <trkpt lat="43.453429" lon="1.283041">
        <ele>184.594407</ele>
        <time>2026-05-23T19:30:29.000Z</time>
      </trkpt>
      <trkpt lat="43.453146" lon="1.282717">
        <ele>184.778312</ele>
        <time>2026-05-23T19:30:33.000Z</time>
      </trkpt>
      <trkpt lat="43.45166" lon="1.281255">
        <ele>185.516141</ele>
        <time>2026-05-23T19:30:53.000Z</time>
      </trkpt>
      <trkpt lat="43.45138" lon="1.280936">
        <ele>185.646073</ele>
        <time>2026-05-23T19:30:57.000Z</time>
      </trkpt>
      <trkpt lat="43.45112" lon="1.280537">
        <ele>185.773071</ele>
        <time>2026-05-23T19:31:01.000Z</time>
      </trkpt>
      <trkpt lat="43.450894" lon="1.280142">
        <ele>185.827497</ele>
        <time>2026-05-23T19:31:05.000Z</time>
      </trkpt>
      <trkpt lat="43.450648" lon="1.27953">
        <ele>185.902633</ele>
        <time>2026-05-23T19:31:11.000Z</time>
      </trkpt>
      <trkpt lat="43.450498" lon="1.278965">
        <ele>185.966635</ele>
        <time>2026-05-23T19:31:16.000Z</time>
      </trkpt>
      <trkpt lat="43.450376" lon="1.27823">
        <ele>186.049734</ele>
        <time>2026-05-23T19:31:22.000Z</time>
      </trkpt>
      <trkpt lat="43.450319" lon="1.277511">
        <ele>186.148755</ele>
        <time>2026-05-23T19:31:28.000Z</time>
      </trkpt>
      <trkpt lat="43.450341" lon="1.277467">
        <ele>186.15867</ele>
        <time>2026-05-23T19:31:28.000Z</time>
      </trkpt>
      <trkpt lat="43.450364" lon="1.277424">
        <ele>186.164029</ele>
        <time>2026-05-23T19:31:28.000Z</time>
      </trkpt>
      <trkpt lat="43.450383" lon="1.277305">
        <ele>186.18273</ele>
        <time>2026-05-23T19:31:29.000Z</time>
      </trkpt>
      <trkpt lat="43.450358" lon="1.277159">
        <ele>186.20132</ele>
        <time>2026-05-23T19:31:30.000Z</time>
      </trkpt>
      <trkpt lat="43.45029" lon="1.277047">
        <ele>186.221942</ele>
        <time>2026-05-23T19:31:31.000Z</time>
      </trkpt>
      <trkpt lat="43.450275" lon="1.276761">
        <ele>186.261182</ele>
        <time>2026-05-23T19:31:33.000Z</time>
      </trkpt>
      <trkpt lat="43.450327" lon="1.276389">
        <ele>186.314532</ele>
        <time>2026-05-23T19:31:36.000Z</time>
      </trkpt>
      <trkpt lat="43.450315" lon="1.276287">
        <ele>186.329713</ele>
        <time>2026-05-23T19:31:37.000Z</time>
      </trkpt>
      <trkpt lat="43.450921" lon="1.272879">
        <ele>186.819709</ele>
        <time>2026-05-23T19:32:05.000Z</time>
      </trkpt>
      <trkpt lat="43.451106" lon="1.271635">
        <ele>186.773554</ele>
        <time>2026-05-23T19:32:15.000Z</time>
      </trkpt>
      <trkpt lat="43.451176" lon="1.271091">
        <ele>186.75146</ele>
        <time>2026-05-23T19:32:19.000Z</time>
      </trkpt>
      <trkpt lat="43.451192" lon="1.270935">
        <ele>186.730544</ele>
        <time>2026-05-23T19:32:20.000Z</time>
      </trkpt>
      <trkpt lat="43.45139" lon="1.270598">
        <ele>186.672197</ele>
        <time>2026-05-23T19:32:23.000Z</time>
      </trkpt>
      <trkpt lat="43.452141" lon="1.269483">
        <ele>186.474771</ele>
        <time>2026-05-23T19:32:35.000Z</time>
      </trkpt>
      <trkpt lat="43.451398" lon="1.270592">
        <ele>186.641225</ele>
        <time>2026-05-23T19:32:47.000Z</time>
      </trkpt>
      <trkpt lat="43.451189" lon="1.270939">
        <ele>186.720478</ele>
        <time>2026-05-23T19:32:51.000Z</time>
      </trkpt>
      <trkpt lat="43.451162" lon="1.2711">
        <ele>186.748877</ele>
        <time>2026-05-23T19:32:52.000Z</time>
      </trkpt>
      <trkpt lat="43.451117" lon="1.27163">
        <ele>186.844104</ele>
        <time>2026-05-23T19:32:56.000Z</time>
      </trkpt>
      <trkpt lat="43.450911" lon="1.272883">
        <ele>186.824232</ele>
        <time>2026-05-23T19:33:06.000Z</time>
      </trkpt>
      <trkpt lat="43.450317" lon="1.276272">
        <ele>186.408848</ele>
        <time>2026-05-23T19:33:34.000Z</time>
      </trkpt>
      <trkpt lat="43.450276" lon="1.276385">
        <ele>186.389938</ele>
        <time>2026-05-23T19:33:35.000Z</time>
      </trkpt>
      <trkpt lat="43.450203" lon="1.276854">
        <ele>186.319273</ele>
        <time>2026-05-23T19:33:39.000Z</time>
      </trkpt>
      <trkpt lat="43.45018" lon="1.276944">
        <ele>186.308649</ele>
        <time>2026-05-23T19:33:40.000Z</time>
      </trkpt>
      <trkpt lat="43.450114" lon="1.277006">
        <ele>186.296944</ele>
        <time>2026-05-23T19:33:41.000Z</time>
      </trkpt>
      <trkpt lat="43.450083" lon="1.277013">
        <ele>186.291056</ele>
        <time>2026-05-23T19:33:41.000Z</time>
      </trkpt>
      <trkpt lat="43.449997" lon="1.277095">
        <ele>186.273997</ele>
        <time>2026-05-23T19:33:42.000Z</time>
      </trkpt>
      <trkpt lat="43.449964" lon="1.277215">
        <ele>186.256989</ele>
        <time>2026-05-23T19:33:43.000Z</time>
      </trkpt>
      <trkpt lat="43.44996" lon="1.277348">
        <ele>186.240483</ele>
        <time>2026-05-23T19:33:44.000Z</time>
      </trkpt>
      <trkpt lat="43.449995" lon="1.277482">
        <ele>186.223859</ele>
        <time>2026-05-23T19:33:45.000Z</time>
      </trkpt>
      <trkpt lat="43.450061" lon="1.277577">
        <ele>186.207221</ele>
        <time>2026-05-23T19:33:46.000Z</time>
      </trkpt>
      <trkpt lat="43.450162" lon="1.277605">
        <ele>186.190619</ele>
        <time>2026-05-23T19:33:47.000Z</time>
      </trkpt>
      <trkpt lat="43.450243" lon="1.27778">
        <ele>186.164464</ele>
        <time>2026-05-23T19:33:49.000Z</time>
      </trkpt>
      <trkpt lat="43.450375" lon="1.278231">
        <ele>186.105483</ele>
        <time>2026-05-23T19:33:53.000Z</time>
      </trkpt>
      <trkpt lat="43.450508" lon="1.278965">
        <ele>186.00796</ele>
        <time>2026-05-23T19:33:59.000Z</time>
      </trkpt>
      <trkpt lat="43.45064" lon="1.279517">
        <ele>185.921551</ele>
        <time>2026-05-23T19:34:04.000Z</time>
      </trkpt>
      <trkpt lat="43.450895" lon="1.280142">
        <ele>185.820089</ele>
        <time>2026-05-23T19:34:10.000Z</time>
      </trkpt>
      <trkpt lat="43.451108" lon="1.280544">
        <ele>185.746633</ele>
        <time>2026-05-23T19:34:14.000Z</time>
      </trkpt>
      <trkpt lat="43.451374" lon="1.280934">
        <ele>185.652241</ele>
        <time>2026-05-23T19:34:18.000Z</time>
      </trkpt>
      <trkpt lat="43.451661" lon="1.281267">
        <ele>185.520203</ele>
        <time>2026-05-23T19:34:22.000Z</time>
      </trkpt>
      <trkpt lat="43.453137" lon="1.282723">
        <ele>184.788628</ele>
        <time>2026-05-23T19:34:42.000Z</time>
      </trkpt>
      <trkpt lat="43.453439" lon="1.283043">
        <ele>184.589788</ele>
        <time>2026-05-23T19:34:46.000Z</time>
      </trkpt>
      <trkpt lat="43.453756" lon="1.283458">
        <ele>184.359212</ele>
        <time>2026-05-23T19:34:51.000Z</time>
      </trkpt>
      <trkpt lat="43.454053" lon="1.283934">
        <ele>184.114198</ele>
        <time>2026-05-23T19:34:56.000Z</time>
      </trkpt>
      <trkpt lat="43.454457" lon="1.28471">
        <ele>183.816487</ele>
        <time>2026-05-23T19:35:04.000Z</time>
      </trkpt>
      <trkpt lat="43.454754" lon="1.285425">
        <ele>183.557793</ele>
        <time>2026-05-23T19:35:11.000Z</time>
      </trkpt>
      <trkpt lat="43.454917" lon="1.285869">
        <ele>183.406774</ele>
        <time>2026-05-23T19:35:15.000Z</time>
      </trkpt>
      <trkpt lat="43.455123" lon="1.286619">
        <ele>183.28504</ele>
        <time>2026-05-23T19:35:21.000Z</time>
      </trkpt>
      <trkpt lat="43.455431" lon="1.287959">
        <ele>183.157113</ele>
        <time>2026-05-23T19:35:32.000Z</time>
      </trkpt>
      <trkpt lat="43.455584" lon="1.288376">
        <ele>183.112973</ele>
        <time>2026-05-23T19:35:36.000Z</time>
      </trkpt>
      <trkpt lat="43.455694" lon="1.288596">
        <ele>183.08335</ele>
        <time>2026-05-23T19:35:38.000Z</time>
      </trkpt>
      <trkpt lat="43.455937" lon="1.289009">
        <ele>183.023133</ele>
        <time>2026-05-23T19:35:42.000Z</time>
      </trkpt>
      <trkpt lat="43.456638" lon="1.290016">
        <ele>182.860549</ele>
        <time>2026-05-23T19:35:53.000Z</time>
      </trkpt>
      <trkpt lat="43.457988" lon="1.292557">
        <ele>182.813167</ele>
        <time>2026-05-23T19:36:18.000Z</time>
      </trkpt>
      <trkpt lat="43.458086" lon="1.292683">
        <ele>182.812471</ele>
        <time>2026-05-23T19:36:19.000Z</time>
      </trkpt>
      <trkpt lat="43.458405" lon="1.292796">
        <ele>182.810963</ele>
        <time>2026-05-23T19:36:23.000Z</time>
      </trkpt>
      <trkpt lat="43.458448" lon="1.292981">
        <ele>182.810273</ele>
        <time>2026-05-23T19:36:25.000Z</time>
      </trkpt>
      <trkpt lat="43.458457" lon="1.292997">
        <ele>182.810256</ele>
        <time>2026-05-23T19:36:25.000Z</time>
      </trkpt>
      <trkpt lat="43.458446" lon="1.292983">
        <ele>182.810249</ele>
        <time>2026-05-23T19:36:25.000Z</time>
      </trkpt>
      <trkpt lat="43.458453" lon="1.292993">
        <ele>182.810248</ele>
        <time>2026-05-23T19:36:25.000Z</time>
      </trkpt>
      <trkpt lat="43.458439" lon="1.292995">
        <ele>182.810241</ele>
        <time>2026-05-23T19:36:25.000Z</time>
      </trkpt>
      <trkpt lat="43.458534" lon="1.292902">
        <ele>182.809777</ele>
        <time>2026-05-23T19:36:26.000Z</time>
      </trkpt>
      <trkpt lat="43.458526" lon="1.292908">
        <ele>182.809766</ele>
        <time>2026-05-23T19:36:26.000Z</time>
      </trkpt>
      <trkpt lat="43.458464" lon="1.292807">
        <ele>182.809266</ele>
        <time>2026-05-23T19:36:27.000Z</time>
      </trkpt>
      <trkpt lat="43.458391" lon="1.292787">
        <ele>182.808989</ele>
        <time>2026-05-23T19:36:28.000Z</time>
      </trkpt>
      <trkpt lat="43.45809" lon="1.292689">
        <ele>182.807471</ele>
        <time>2026-05-23T19:36:31.000Z</time>
      </trkpt>
      <trkpt lat="43.45798" lon="1.29255">
        <ele>182.806775</ele>
        <time>2026-05-23T19:36:33.000Z</time>
      </trkpt>
      <trkpt lat="43.456638" lon="1.290016">
        <ele>182.864258</ele>
        <time>2026-05-23T19:36:58.000Z</time>
      </trkpt>
      <trkpt lat="43.455938" lon="1.289009">
        <ele>183.023655</ele>
        <time>2026-05-23T19:37:09.000Z</time>
      </trkpt>
      <trkpt lat="43.455696" lon="1.288606">
        <ele>183.082699</ele>
        <time>2026-05-23T19:37:13.000Z</time>
      </trkpt>
      <trkpt lat="43.455585" lon="1.288373">
        <ele>183.110274</ele>
        <time>2026-05-23T19:37:15.000Z</time>
      </trkpt>
      <trkpt lat="43.455431" lon="1.287942">
        <ele>183.15472</ele>
        <time>2026-05-23T19:37:19.000Z</time>
      </trkpt>
      <trkpt lat="43.455133" lon="1.28663">
        <ele>183.283517</ele>
        <time>2026-05-23T19:37:30.000Z</time>
      </trkpt>
      <trkpt lat="43.454912" lon="1.285877">
        <ele>183.41815</ele>
        <time>2026-05-23T19:37:37.000Z</time>
      </trkpt>
      <trkpt lat="43.454753" lon="1.28543">
        <ele>183.564129</ele>
        <time>2026-05-23T19:37:41.000Z</time>
      </trkpt>
      <trkpt lat="43.454447" lon="1.284713">
        <ele>183.814195</ele>
        <time>2026-05-23T19:37:48.000Z</time>
      </trkpt>
      <trkpt lat="43.454048" lon="1.283935">
        <ele>184.108597</ele>
        <time>2026-05-23T19:37:56.000Z</time>
      </trkpt>
      <trkpt lat="43.453749" lon="1.283461">
        <ele>184.357242</ele>
        <time>2026-05-23T19:38:01.000Z</time>
      </trkpt>
      <trkpt lat="43.453427" lon="1.283046">
        <ele>184.591227</ele>
        <time>2026-05-23T19:38:06.000Z</time>
      </trkpt>
      <trkpt lat="43.45313" lon="1.282718">
        <ele>184.793005</ele>
        <time>2026-05-23T19:38:10.000Z</time>
      </trkpt>
      <trkpt lat="43.451664" lon="1.281264">
        <ele>185.520849</ele>
        <time>2026-05-23T19:38:30.000Z</time>
      </trkpt>
      <trkpt lat="43.451376" lon="1.280933">
        <ele>185.653389</ele>
        <time>2026-05-23T19:38:34.000Z</time>
      </trkpt>
      <trkpt lat="43.451111" lon="1.280551">
        <ele>185.735525</ele>
        <time>2026-05-23T19:38:38.000Z</time>
      </trkpt>
      <trkpt lat="43.450886" lon="1.280134">
        <ele>185.803775</ele>
        <time>2026-05-23T19:38:42.000Z</time>
      </trkpt>
      <trkpt lat="43.45065" lon="1.279528">
        <ele>185.898014</ele>
        <time>2026-05-23T19:38:48.000Z</time>
      </trkpt>
      <trkpt lat="43.450505" lon="1.278953">
        <ele>185.978294</ele>
        <time>2026-05-23T19:38:53.000Z</time>
      </trkpt>
      <trkpt lat="43.450375" lon="1.278242">
        <ele>186.070018</ele>
        <time>2026-05-23T19:38:59.000Z</time>
      </trkpt>
      <trkpt lat="43.45032" lon="1.27752">
        <ele>186.1551</ele>
        <time>2026-05-23T19:39:05.000Z</time>
      </trkpt>
      <trkpt lat="43.450344" lon="1.277456">
        <ele>186.163629</ele>
        <time>2026-05-23T19:39:06.000Z</time>
      </trkpt>
      <trkpt lat="43.450366" lon="1.277434">
        <ele>186.168225</ele>
        <time>2026-05-23T19:39:06.000Z</time>
      </trkpt>
      <trkpt lat="43.450374" lon="1.277301">
        <ele>186.184306</ele>
        <time>2026-05-23T19:39:07.000Z</time>
      </trkpt>
      <trkpt lat="43.450352" lon="1.277168">
        <ele>186.200285</ele>
        <time>2026-05-23T19:39:08.000Z</time>
      </trkpt>
      <trkpt lat="43.450296" lon="1.277055">
        <ele>186.218017</ele>
        <time>2026-05-23T19:39:09.000Z</time>
      </trkpt>
      <trkpt lat="43.450268" lon="1.276759">
        <ele>186.251728</ele>
        <time>2026-05-23T19:39:11.000Z</time>
      </trkpt>
      <trkpt lat="43.450328" lon="1.276392">
        <ele>186.297576</ele>
        <time>2026-05-23T19:39:14.000Z</time>
      </trkpt>
      <trkpt lat="43.450317" lon="1.276279">
        <ele>186.315881</ele>
        <time>2026-05-23T19:39:15.000Z</time>
      </trkpt>
      <trkpt lat="43.450916" lon="1.272871">
        <ele>186.801431</ele>
        <time>2026-05-23T19:39:43.000Z</time>
      </trkpt>
      <trkpt lat="43.451111" lon="1.271634">
        <ele>186.825689</ele>
        <time>2026-05-23T19:39:53.000Z</time>
      </trkpt>
      <trkpt lat="43.451161" lon="1.271094">
        <ele>186.758302</ele>
        <time>2026-05-23T19:39:57.000Z</time>
      </trkpt>
      <trkpt lat="43.451189" lon="1.270938">
        <ele>186.732152</ele>
        <time>2026-05-23T19:39:58.000Z</time>
      </trkpt>
      <trkpt lat="43.451404" lon="1.270594">
        <ele>186.659172</ele>
        <time>2026-05-23T19:40:02.000Z</time>
      </trkpt>
      <trkpt lat="43.452146" lon="1.269482">
        <ele>186.433566</ele>
        <time>2026-05-23T19:40:14.000Z</time>
      </trkpt>
      <trkpt lat="43.45139" lon="1.270593">
        <ele>186.665998</ele>
        <time>2026-05-23T19:40:26.000Z</time>
      </trkpt>
      <trkpt lat="43.451195" lon="1.270932">
        <ele>186.734705</ele>
        <time>2026-05-23T19:40:29.000Z</time>
      </trkpt>
      <trkpt lat="43.451168" lon="1.271102">
        <ele>186.759315</ele>
        <time>2026-05-23T19:40:30.000Z</time>
      </trkpt>
      <trkpt lat="43.451116" lon="1.271637">
        <ele>186.806934</ele>
        <time>2026-05-23T19:40:34.000Z</time>
      </trkpt>
      <trkpt lat="43.450915" lon="1.272882">
        <ele>186.82132</ele>
        <time>2026-05-23T19:40:44.000Z</time>
      </trkpt>
      <trkpt lat="43.450323" lon="1.276286">
        <ele>186.407052</ele>
        <time>2026-05-23T19:41:12.000Z</time>
      </trkpt>
      <trkpt lat="43.450278" lon="1.27638">
        <ele>186.392113</ele>
        <time>2026-05-23T19:41:13.000Z</time>
      </trkpt>
      <trkpt lat="43.45021" lon="1.276869">
        <ele>186.326138</ele>
        <time>2026-05-23T19:41:17.000Z</time>
      </trkpt>
      <trkpt lat="43.450185" lon="1.276941">
        <ele>186.314549</ele>
        <time>2026-05-23T19:41:18.000Z</time>
      </trkpt>
      <trkpt lat="43.450132" lon="1.276997">
        <ele>186.301786</ele>
        <time>2026-05-23T19:41:19.000Z</time>
      </trkpt>
      <trkpt lat="43.450097" lon="1.277025">
        <ele>186.295368</ele>
        <time>2026-05-23T19:41:19.000Z</time>
      </trkpt>
      <trkpt lat="43.450012" lon="1.277106">
        <ele>186.27677</ele>
        <time>2026-05-23T19:41:20.000Z</time>
      </trkpt>
      <trkpt lat="43.449963" lon="1.277223">
        <ele>186.25821</ele>
        <time>2026-05-23T19:41:21.000Z</time>
      </trkpt>
      <trkpt lat="43.449944" lon="1.277348">
        <ele>186.240218</ele>
        <time>2026-05-23T19:41:22.000Z</time>
      </trkpt>
      <trkpt lat="43.449987" lon="1.277472">
        <ele>186.222084</ele>
        <time>2026-05-23T19:41:23.000Z</time>
      </trkpt>
      <trkpt lat="43.450075" lon="1.277574">
        <ele>186.20394</ele>
        <time>2026-05-23T19:41:24.000Z</time>
      </trkpt>
      <trkpt lat="43.450158" lon="1.277604">
        <ele>186.185844</ele>
        <time>2026-05-23T19:41:25.000Z</time>
      </trkpt>
      <trkpt lat="43.450248" lon="1.277781">
        <ele>186.15732</ele>
        <time>2026-05-23T19:41:27.000Z</time>
      </trkpt>
      <trkpt lat="43.45038" lon="1.278236">
        <ele>186.092998</ele>
        <time>2026-05-23T19:41:31.000Z</time>
      </trkpt>
      <trkpt lat="43.450492" lon="1.278968">
        <ele>186.001518</ele>
        <time>2026-05-23T19:41:37.000Z</time>
      </trkpt>
      <trkpt lat="43.45065" lon="1.279525">
        <ele>185.92848</ele>
        <time>2026-05-23T19:41:42.000Z</time>
      </trkpt>
      <trkpt lat="43.450891" lon="1.280128">
        <ele>185.842732</ele>
        <time>2026-05-23T19:41:48.000Z</time>
      </trkpt>
      <trkpt lat="43.451111" lon="1.280542">
        <ele>185.776299</ele>
        <time>2026-05-23T19:41:52.000Z</time>
      </trkpt>
      <trkpt lat="43.451369" lon="1.280932">
        <ele>185.644372</ele>
        <time>2026-05-23T19:41:56.000Z</time>
      </trkpt>
      <trkpt lat="43.451653" lon="1.281263">
        <ele>185.51486</ele>
        <time>2026-05-23T19:42:00.000Z</time>
      </trkpt>
      <trkpt lat="43.453138" lon="1.282721">
        <ele>184.778234</ele>
        <time>2026-05-23T19:42:20.000Z</time>
      </trkpt>
      <trkpt lat="43.453433" lon="1.283057">
        <ele>184.597827</ele>
        <time>2026-05-23T19:42:24.000Z</time>
      </trkpt>
      <trkpt lat="43.453741" lon="1.283458">
        <ele>184.38861</ele>
        <time>2026-05-23T19:42:29.000Z</time>
      </trkpt>
      <trkpt lat="43.454056" lon="1.28394">
        <ele>184.159096</ele>
        <time>2026-05-23T19:42:34.000Z</time>
      </trkpt>
      <trkpt lat="43.454461" lon="1.284717">
        <ele>183.808008</ele>
        <time>2026-05-23T19:42:42.000Z</time>
      </trkpt>
      <trkpt lat="43.454761" lon="1.285433">
        <ele>183.501876</ele>
        <time>2026-05-23T19:42:49.000Z</time>
      </trkpt>
      <trkpt lat="43.454922" lon="1.285879">
        <ele>183.372687</ele>
        <time>2026-05-23T19:42:53.000Z</time>
      </trkpt>
      <trkpt lat="43.45513" lon="1.286617">
        <ele>183.298278</ele>
        <time>2026-05-23T19:42:59.000Z</time>
      </trkpt>
      <trkpt lat="43.455436" lon="1.287945">
        <ele>183.169876</ele>
        <time>2026-05-23T19:43:10.000Z</time>
      </trkpt>
      <trkpt lat="43.455583" lon="1.288374">
        <ele>183.112844</ele>
        <time>2026-05-23T19:43:14.000Z</time>
      </trkpt>
      <trkpt lat="43.455694" lon="1.288599">
        <ele>183.080491</ele>
        <time>2026-05-23T19:43:16.000Z</time>
      </trkpt>
      <trkpt lat="43.455925" lon="1.289006">
        <ele>183.015345</ele>
        <time>2026-05-23T19:43:20.000Z</time>
      </trkpt>
      <trkpt lat="43.456624" lon="1.290033">
        <ele>182.849024</ele>
        <time>2026-05-23T19:43:31.000Z</time>
      </trkpt>
      <trkpt lat="43.457982" lon="1.292549">
        <ele>182.80761</ele>
        <time>2026-05-23T19:43:56.000Z</time>
      </trkpt>
      <trkpt lat="43.4581" lon="1.29268">
        <ele>182.808616</ele>
        <time>2026-05-23T19:43:58.000Z</time>
      </trkpt>
      <trkpt lat="43.458394" lon="1.292794">
        <ele>182.81082</ele>
        <time>2026-05-23T19:44:01.000Z</time>
      </trkpt>
      <trkpt lat="43.45844" lon="1.292974">
        <ele>182.811807</ele>
        <time>2026-05-23T19:44:03.000Z</time>
      </trkpt>
      <trkpt lat="43.458448" lon="1.292997">
        <ele>182.811832</ele>
        <time>2026-05-23T19:44:03.000Z</time>
      </trkpt>
      <trkpt lat="43.45844" lon="1.292981">
        <ele>182.811832</ele>
        <time>2026-05-23T19:44:03.000Z</time>
      </trkpt>
      <trkpt lat="43.45844" lon="1.29299">
        <ele>182.811824</ele>
        <time>2026-05-23T19:44:03.000Z</time>
      </trkpt>
      <trkpt lat="43.458521" lon="1.292911">
        <ele>182.812508</ele>
        <time>2026-05-23T19:44:04.000Z</time>
      </trkpt>
      <trkpt lat="43.458447" lon="1.292802">
        <ele>182.813239</ele>
        <time>2026-05-23T19:44:05.000Z</time>
      </trkpt>
      <trkpt lat="43.458392" lon="1.292789">
        <ele>182.813623</ele>
        <time>2026-05-23T19:44:06.000Z</time>
      </trkpt>
      <trkpt lat="43.458086" lon="1.292689">
        <ele>182.815825</ele>
        <time>2026-05-23T19:44:09.000Z</time>
      </trkpt>
      <trkpt lat="43.457986" lon="1.292558">
        <ele>182.815808</ele>
        <time>2026-05-23T19:44:11.000Z</time>
      </trkpt>
      <trkpt lat="43.45664" lon="1.290021">
        <ele>182.881768</ele>
        <time>2026-05-23T19:44:36.000Z</time>
      </trkpt>
      <trkpt lat="43.455936" lon="1.289">
        <ele>183.019099</ele>
        <time>2026-05-23T19:44:47.000Z</time>
      </trkpt>
      <trkpt lat="43.455696" lon="1.288589">
        <ele>183.070341</ele>
        <time>2026-05-23T19:44:51.000Z</time>
      </trkpt>
      <trkpt lat="43.455596" lon="1.28838">
        <ele>183.096036</ele>
        <time>2026-05-23T19:44:53.000Z</time>
      </trkpt>
      <trkpt lat="43.455436" lon="1.287948">
        <ele>183.143872</ele>
        <time>2026-05-23T19:44:57.000Z</time>
      </trkpt>
      <trkpt lat="43.455135" lon="1.286619">
        <ele>183.282469</ele>
        <time>2026-05-23T19:45:08.000Z</time>
      </trkpt>
      <trkpt lat="43.454911" lon="1.285864">
        <ele>183.459882</ele>
        <time>2026-05-23T19:45:15.000Z</time>
      </trkpt>
      <trkpt lat="43.454767" lon="1.28544">
        <ele>183.577441</ele>
        <time>2026-05-23T19:45:19.000Z</time>
      </trkpt>
      <trkpt lat="43.454456" lon="1.28472">
        <ele>183.778808</ele>
        <time>2026-05-23T19:45:26.000Z</time>
      </trkpt>
      <trkpt lat="43.45406" lon="1.283943">
        <ele>184.094394</ele>
        <time>2026-05-23T19:45:34.000Z</time>
      </trkpt>
      <trkpt lat="43.453752" lon="1.283465">
        <ele>184.361292</ele>
        <time>2026-05-23T19:45:39.000Z</time>
      </trkpt>
      <trkpt lat="43.453423" lon="1.283056">
        <ele>184.612445</ele>
        <time>2026-05-23T19:45:44.000Z</time>
      </trkpt>
      <trkpt lat="43.453134" lon="1.282734">
        <ele>184.829042</ele>
        <time>2026-05-23T19:45:48.000Z</time>
      </trkpt>
      <trkpt lat="43.451671" lon="1.281257">
        <ele>185.523403</ele>
        <time>2026-05-23T19:46:08.000Z</time>
      </trkpt>
      <trkpt lat="43.451365" lon="1.280925">
        <ele>185.62919</ele>
        <time>2026-05-23T19:46:12.000Z</time>
      </trkpt>
      <trkpt lat="43.451116" lon="1.28054">
        <ele>185.715294</ele>
        <time>2026-05-23T19:46:16.000Z</time>
      </trkpt>
      <trkpt lat="43.450894" lon="1.280131">
        <ele>185.798174</ele>
        <time>2026-05-23T19:46:20.000Z</time>
      </trkpt>
      <trkpt lat="43.450651" lon="1.279519">
        <ele>185.912678</ele>
        <time>2026-05-23T19:46:26.000Z</time>
      </trkpt>
      <trkpt lat="43.450491" lon="1.278957">
        <ele>185.996292</ele>
        <time>2026-05-23T19:46:31.000Z</time>
      </trkpt>
      <trkpt lat="43.450371" lon="1.278232">
        <ele>186.051379</ele>
        <time>2026-05-23T19:46:37.000Z</time>
      </trkpt>
      <trkpt lat="43.450318" lon="1.277511">
        <ele>186.104768</ele>
        <time>2026-05-23T19:46:43.000Z</time>
      </trkpt>
      <trkpt lat="43.450346" lon="1.277465">
        <ele>186.110121</ele>
        <time>2026-05-23T19:46:43.000Z</time>
      </trkpt>
      <trkpt lat="43.450355" lon="1.277438">
        <ele>186.113007</ele>
        <time>2026-05-23T19:46:43.000Z</time>
      </trkpt>
      <trkpt lat="43.450631" lon="1.277316">
        <ele>186.141834</ele>
        <time>2026-05-23T19:46:46.000Z</time>
      </trkpt>
      <trkpt lat="43.450902" lon="1.277323">
        <ele>186.165067</ele>
        <time>2026-05-23T19:46:49.000Z</time>
      </trkpt>
      <trkpt lat="43.451045" lon="1.277303">
        <ele>186.14819</ele>
        <time>2026-05-23T19:46:51.000Z</time>
      </trkpt>
      <trkpt lat="43.45116" lon="1.277165">
        <ele>186.128515</ele>
        <time>2026-05-23T19:46:53.000Z</time>
      </trkpt>
      <trkpt lat="43.451174" lon="1.277094">
        <ele>186.120687</ele>
        <time>2026-05-23T19:46:54.000Z</time>
      </trkpt>
      <trkpt lat="43.451132" lon="1.276259">
        <ele>186.041814</ele>
        <time>2026-05-23T19:47:01.000Z</time>
      </trkpt>
      <trkpt lat="43.451167" lon="1.276114">
        <ele>186.027834</ele>
        <time>2026-05-23T19:47:02.000Z</time>
      </trkpt>
      <trkpt lat="43.451266" lon="1.275959">
        <ele>186.009293</ele>
        <time>2026-05-23T19:47:04.000Z</time>
      </trkpt>
      <trkpt lat="43.45139" lon="1.275837">
        <ele>185.989544</ele>
        <time>2026-05-23T19:47:06.000Z</time>
      </trkpt>
      <trkpt lat="43.451452" lon="1.275766">
        <ele>185.980294</ele>
        <time>2026-05-23T19:47:07.000Z</time>
      </trkpt>
      <trkpt lat="43.451789" lon="1.275579">
        <ele>185.931945</ele>
        <time>2026-05-23T19:47:11.000Z</time>
      </trkpt>
      <trkpt lat="43.452197" lon="1.275498">
        <ele>185.849319</ele>
        <time>2026-05-23T19:47:16.000Z</time>
      </trkpt>
      <trkpt lat="43.452362" lon="1.275536">
        <ele>185.812852</ele>
        <time>2026-05-23T19:47:18.000Z</time>
      </trkpt>
      <trkpt lat="43.452533" lon="1.275598">
        <ele>185.77973</ele>
        <time>2026-05-23T19:47:20.000Z</time>
      </trkpt>
      <trkpt lat="43.452709" lon="1.27578">
        <ele>185.736565</ele>
        <time>2026-05-23T19:47:22.000Z</time>
      </trkpt>
      <trkpt lat="43.453187" lon="1.276451">
        <ele>185.598325</ele>
        <time>2026-05-23T19:47:30.000Z</time>
      </trkpt>
      <trkpt lat="43.453454" lon="1.276621">
        <ele>185.54945243</ele>
        <time>2026-05-23T19:47:33.000Z</time>
      </trkpt>
      <trkpt lat="43.453588" lon="1.276633">
        <ele>185.527140837</ele>
        <time>2026-05-23T19:47:34.000Z</time>
      </trkpt>
      <trkpt lat="43.45372" lon="1.276583">
        <ele>185.504394499</ele>
        <time>2026-05-23T19:47:36.000Z</time>
      </trkpt>
      <trkpt lat="43.454066" lon="1.276286">
        <ele>185.436657641</ele>
        <time>2026-05-23T19:47:41.000Z</time>
      </trkpt>
      <trkpt lat="43.454205" lon="1.276268">
        <ele>185.413460456</ele>
        <time>2026-05-23T19:47:43.000Z</time>
      </trkpt>
      <trkpt lat="43.454342" lon="1.276276">
        <ele>185.390676957</ele>
        <time>2026-05-23T19:47:45.000Z</time>
      </trkpt>
      <trkpt lat="43.454624" lon="1.276386">
        <ele>185.341979399</ele>
        <time>2026-05-23T19:47:48.000Z</time>
      </trkpt>
      <trkpt lat="43.454768" lon="1.276742">
        <ele>185.292824716</ele>
        <time>2026-05-23T19:47:51.000Z</time>
      </trkpt>
      <trkpt lat="43.455088" lon="1.277059">
        <ele>185.227335486</ele>
        <time>2026-05-23T19:47:55.000Z</time>
      </trkpt>
      <trkpt lat="43.455216" lon="1.27717">
        <ele>185.202204748</ele>
        <time>2026-05-23T19:47:57.000Z</time>
      </trkpt>
      <trkpt lat="43.455388" lon="1.277184">
        <ele>185.173576469</ele>
        <time>2026-05-23T19:47:59.000Z</time>
      </trkpt>
    </trkseg>
  </trk>
</gpx>

<!--
Performance optimized by W3 Total Cache. Learn more: https://www.boldgrid.com/w3-total-cache/?utm_source=w3tc&utm_medium=footer_comment&utm_campaign=free_plugin

Page Caching using Disk: Enhanced{w3tc_pagecache_reject_reason} 

Served from: www.aquabike.world @ 2026-05-07 23:55:55 by W3 Total Cache
-->